Time;durP1;ratioP1;P1;durP2;ratioP2;P2;SDS_P1;SDS_P2;PMS_P1;PMS_P2;Temp;Humidity;BMP_temperature;BMP_pressure;BME280_temperature;BME280_humidity;BME280_pressure;Samples;Min_cycle;Max_cycle;Signal;HPM_P1;HPM_P2
2021/12/14 00:00:21;;;;;;;7.40;2.95;;;;;;;;;;7388502;19;19998;-73
2021/12/14 00:02:49;;;;;;;4.45;2.55;;;;;;;;;;7389172;19;20021;-74
2021/12/14 00:05:18;;;;;;;4.70;2.38;;;;;;;;;;7389490;19;20007;-73
2021/12/14 00:07:44;;;;;;;5.10;2.75;;;;;;;;;;7386868;19;19999;-70
2021/12/14 00:10:27;;;;;;;12.45;3.33;;;;;;;;;;7387463;19;20022;-71
2021/12/14 00:13:04;;;;;;;6.53;2.50;;;;;;;;;;7385650;19;20007;-72
2021/12/14 00:15:30;;;;;;;7.28;3.30;;;;;;;;;;7392266;19;20323;-72
2021/12/14 00:18:00;;;;;;;7.80;2.80;;;;;;;;;;7387034;19;22332;-71
2021/12/14 00:20:35;;;;;;;5.38;2.53;;;;;;;;;;7388028;19;20036;-71
2021/12/14 00:25:31;;;;;;;6.47;2.60;;;;;;;;;;7387849;19;20106;-72
2021/12/14 00:27:58;;;;;;;10.45;2.90;;;;;;;;;;7387487;19;20006;-70
2021/12/14 00:30:24;;;;;;;9.43;3.42;;;;;;;;;;7389636;19;20014;-71
2021/12/14 00:32:49;;;;;;;6.05;3.05;;;;;;;;;;7385303;19;20040;-71
2021/12/14 00:35:15;;;;;;;7.82;2.95;;;;;;;;;;7391613;19;20003;-73
2021/12/14 00:37:45;;;;;;;8.48;3.35;;;;;;;;;;7391565;19;20017;-70
2021/12/14 00:40:37;;;;;;;6.47;3.05;;;;;;;;;;7388325;19;20073;-70
2021/12/14 00:43:03;;;;;;;7.53;2.95;;;;;;;;;;7388317;19;20367;-71
2021/12/14 00:45:31;;;;;;;7.68;3.10;;;;;;;;;;7388355;19;20002;-70
2021/12/14 00:47:57;;;;;;;10.52;3.25;;;;;;;;;;7389879;19;20014;-71
2021/12/14 00:50:24;;;;;;;8.38;3.33;;;;;;;;;;7389042;19;20003;-73
2021/12/14 00:52:50;;;;;;;5.85;3.17;;;;;;;;;;7386201;19;20010;-74
2021/12/14 00:55:27;;;;;;;12.10;3.25;;;;;;;;;;7383292;19;20013;-71
2021/12/14 00:57:53;;;;;;;12.35;4.03;;;;;;;;;;7386784;19;20006;-73
2021/12/14 01:00:23;;;;;;;31.73;5.40;;;;;;;;;;7386227;19;20035;-70
2021/12/14 01:02:48;;;;;;;11.90;3.95;;;;;;;;;;7385411;19;20010;-73
2021/12/14 01:05:22;;;;;;;15.15;3.13;;;;;;;;;;7387602;19;20367;-70
2021/12/14 01:07:48;;;;;;;12.32;4.03;;;;;;;;;;7385753;19;20475;-72
2021/12/14 01:10:26;;;;;;;8.45;3.42;;;;;;;;;;7385350;19;20002;-71
2021/12/14 01:12:55;;;;;;;16.00;4.30;;;;;;;;;;7386336;19;20010;-73
2021/12/14 01:18:46;;;;;;;7.72;3.47;;;;;;;;;;7384371;19;20556;-74
2021/12/14 01:23:46;;;;;;;7.53;3.42;;;;;;;;;;7386989;19;20007;-74
2021/12/14 01:26:15;;;;;;;27.52;4.05;;;;;;;;;;7386478;19;20338;-72
2021/12/14 01:28:43;;;;;;;20.67;2.92;;;;;;;;;;7385550;19;20474;-74
2021/12/14 01:31:27;;;;;;;19.13;4.22;;;;;;;;;;7386288;19;20002;-71
2021/12/14 01:33:57;;;;;;;16.90;4.00;;;;;;;;;;7385115;19;20030;-72
2021/12/14 01:36:29;;;;;;;7.22;3.05;;;;;;;;;;7389269;19;20002;-71
2021/12/14 01:41:53;;;;;;;22.90;4.45;;;;;;;;;;7381946;19;20027;-71
2021/12/14 01:44:18;;;;;;;24.58;3.92;;;;;;;;;;7386261;19;20363;-75
2021/12/14 01:46:49;;;;;;;8.38;3.28;;;;;;;;;;7384308;19;20103;-72
2021/12/14 01:49:16;;;;;;;31.30;4.57;;;;;;;;;;7384757;19;20018;-74
2021/12/14 01:51:46;;;;;;;41.22;3.90;;;;;;;;;;7379878;19;20060;-75
2021/12/14 01:54:14;;;;;;;88.38;8.80;;;;;;;;;;7387860;19;20287;-71
2021/12/14 01:56:40;;;;;;;24.17;5.05;;;;;;;;;;7386411;19;20010;-70
2021/12/14 01:59:14;;;;;;;16.05;3.08;;;;;;;;;;7385147;19;20007;-77
2021/12/14 02:01:55;;;;;;;20.40;7.45;;;;;;;;;;7385177;19;20460;-73
2021/12/14 02:04:25;;;;;;;34.42;4.70;;;;;;;;;;7387506;19;20010;-73
2021/12/14 02:07:03;;;;;;;40.47;6.05;;;;;;;;;;7386658;19;20346;-71
2021/12/14 02:09:31;;;;;;;11.80;5.50;;;;;;;;;;7385969;19;20013;-71
2021/12/14 02:11:59;;;;;;;18.50;6.57;;;;;;;;;;7384558;19;20078;-76
2021/12/14 02:14:25;;;;;;;5.63;3.17;;;;;;;;;;7387554;19;20006;-71
2021/12/14 02:16:54;;;;;;;22.13;5.05;;;;;;;;;;7387264;19;20018;-73
2021/12/14 02:19:21;;;;;;;17.52;3.95;;;;;;;;;;7384279;19;20010;-73
2021/12/14 02:21:49;;;;;;;15.85;4.72;;;;;;;;;;7386862;19;20571;-74
2021/12/14 02:24:20;;;;;;;9.75;5.07;;;;;;;;;;7383395;19;20007;-71
2021/12/14 02:26:47;;;;;;;29.95;6.28;;;;;;;;;;7387272;19;19998;-70
2021/12/14 02:29:31;;;;;;;17.23;4.65;;;;;;;;;;7381744;19;20015;-71
2021/12/14 02:32:21;;;;;;;19.20;6.22;;;;;;;;;;7383130;19;20011;-75
2021/12/14 02:34:53;;;;;;;12.32;3.20;;;;;;;;;;7381649;19;20051;-70
2021/12/14 02:37:37;;;;;;;5.47;2.30;;;;;;;;;;7384037;19;20453;-71
2021/12/14 02:40:19;;;;;;;3.53;2.03;;;;;;;;;;7383765;19;20004;-73
2021/12/14 02:42:47;;;;;;;4.13;2.30;;;;;;;;;;7383247;19;20413;-71
2021/12/14 02:45:13;;;;;;;8.45;2.50;;;;;;;;;;7384984;19;19999;-74
2021/12/14 02:47:39;;;;;;;4.63;1.98;;;;;;;;;;7386230;19;20378;-72
2021/12/14 02:50:07;;;;;;;10.15;1.70;;;;;;;;;;7384700;19;20027;-70
2021/12/14 02:52:36;;;;;;;3.35;1.95;;;;;;;;;;7383487;19;20030;-72
2021/12/14 02:55:08;;;;;;;4.03;1.58;;;;;;;;;;7385269;19;20468;-71
2021/12/14 02:57:36;;;;;;;3.38;1.90;;;;;;;;;;7384282;19;20007;-70
2021/12/14 03:00:08;;;;;;;5.97;2.58;;;;;;;;;;7384360;19;20002;-71
2021/12/14 03:02:34;;;;;;;4.60;1.90;;;;;;;;;;7383158;19;20013;-71
2021/12/14 03:05:27;;;;;;;11.10;2.10;;;;;;;;;;7383794;19;20077;-73
2021/12/14 03:07:58;;;;;;;2.70;1.63;;;;;;;;;;7382620;19;20507;-72
2021/12/14 03:12:59;;;;;;;9.10;2.00;;;;;;;;;;7382639;19;20003;-72
2021/12/14 03:15:53;;;;;;;7.18;1.80;;;;;;;;;;7384888;19;20006;-72
2021/12/14 03:18:25;;;;;;;15.65;2.10;;;;;;;;;;7382585;19;20007;-70
2021/12/14 03:20:58;;;;;;;6.72;1.88;;;;;;;;;;7382176;19;20888;-72
2021/12/14 03:23:29;;;;;;;5.78;1.42;;;;;;;;;;7384673;19;20015;-74
2021/12/14 03:25:57;;;;;;;2.25;1.25;;;;;;;;;;7380302;19;20003;-71
2021/12/14 03:28:26;;;;;;;6.25;1.40;;;;;;;;;;7383896;19;20002;-70
2021/12/14 03:31:00;;;;;;;4.60;1.25;;;;;;;;;;7383476;19;20018;-76
2021/12/14 03:33:30;;;;;;;7.73;1.30;;;;;;;;;;7383687;19;20011;-74
2021/12/14 03:35:58;;;;;;;11.45;1.92;;;;;;;;;;7380989;19;20143;-73
2021/12/14 03:38:31;;;;;;;8.60;1.50;;;;;;;;;;7382901;19;20842;-73
2021/12/14 03:41:37;;;;;;;6.90;1.60;;;;;;;;;;7385252;19;20150;-71
2021/12/14 03:44:27;;;;;;;2.70;1.47;;;;;;;;;;7391131;19;20017;-71
2021/12/14 03:46:55;;;;;;;1.50;1.20;;;;;;;;;;7390355;19;20349;-73
2021/12/14 03:49:23;;;;;;;5.43;1.30;;;;;;;;;;7388621;19;20002;-71
2021/12/14 03:51:49;;;;;;;1.30;1.17;;;;;;;;;;7389888;19;20567;-73
2021/12/14 03:54:18;;;;;;;3.50;1.35;;;;;;;;;;7390344;19;20043;-71
2021/12/14 03:56:43;;;;;;;6.15;2.90;;;;;;;;;;7388763;19;20026;-71
2021/12/14 03:59:09;;;;;;;2.65;1.85;;;;;;;;;;7389264;19;20446;-71
2021/12/14 04:01:39;;;;;;;6.70;1.35;;;;;;;;;;7386643;19;20357;-74
2021/12/14 04:04:19;;;;;;;2.70;1.20;;;;;;;;;;7389052;19;20441;-72
2021/12/14 04:06:49;;;;;;;2.03;1.17;;;;;;;;;;7388912;19;20468;-71
2021/12/14 04:09:17;;;;;;;6.40;1.65;;;;;;;;;;7386469;19;20006;-74
2021/12/14 04:11:43;;;;;;;1.85;1.38;;;;;;;;;;7387869;19;20107;-78
2021/12/14 04:14:09;;;;;;;7.72;1.58;;;;;;;;;;7389954;19;20006;-71
2021/12/14 04:16:36;;;;;;;14.15;2.38;;;;;;;;;;7387032;19;20073;-71
2021/12/14 04:19:05;;;;;;;9.45;1.35;;;;;;;;;;7388202;19;20003;-74
2021/12/14 04:21:38;;;;;;;1.85;1.23;;;;;;;;;;7385961;19;20019;-71
2021/12/14 04:24:06;;;;;;;3.65;1.00;;;;;;;;;;7388394;19;20010;-72
2021/12/14 04:26:31;;;;;;;2.65;1.40;;;;;;;;;;7386497;19;20021;-74
2021/12/14 04:28:58;;;;;;;3.33;1.23;;;;;;;;;;7389141;19;20389;-71
2021/12/14 04:31:24;;;;;;;21.98;3.67;;;;;;;;;;7388625;19;20473;-72
2021/12/14 04:33:51;;;;;;;3.38;1.05;;;;;;;;;;7389963;19;20113;-72
2021/12/14 04:36:22;;;;;;;8.32;1.65;;;;;;;;;;7388923;19;20535;-71
2021/12/14 04:38:53;;;;;;;3.40;1.20;;;;;;;;;;7386107;19;20007;-75
2021/12/14 04:52:22;;;;;;;14.50;1.58;;;;;;;;;;7385206;19;20027;-71
2021/12/14 04:54:58;;;;;;;17.00;1.92;;;;;;;;;;7387497;19;20095;-71
2021/12/14 04:57:26;;;;;;;10.57;1.45;;;;;;;;;;7389945;19;20033;-72
2021/12/14 04:59:53;;;;;;;3.67;1.30;;;;;;;;;;7384316;19;20014;-72
2021/12/14 05:02:24;;;;;;;9.15;1.60;;;;;;;;;;7385890;19;20029;-71
2021/12/14 05:04:51;;;;;;;4.28;1.20;;;;;;;;;;7387633;19;20006;-71
2021/12/14 05:10:05;;;;;;;3.97;1.60;;;;;;;;;;7383213;19;20002;-74
2021/12/14 05:12:33;;;;;;;2.65;1.33;;;;;;;;;;7383462;19;20014;-72
2021/12/14 05:15:01;;;;;;;2.90;1.65;;;;;;;;;;7386308;19;20011;-71
2021/12/14 05:17:31;;;;;;;29.20;2.63;;;;;;;;;;7386054;19;20057;-72
2021/12/14 05:19:58;;;;;;;13.93;1.23;;;;;;;;;;7386485;19;20042;-71
2021/12/14 05:22:30;;;;;;;44.90;4.07;;;;;;;;;;7386197;19;20407;-72
2021/12/14 05:25:03;;;;;;;9.15;2.30;;;;;;;;;;7386698;19;20724;-72
2021/12/14 05:27:43;;;;;;;9.82;2.17;;;;;;;;;;7382403;19;20003;-71
2021/12/14 05:30:24;;;;;;;9.20;1.48;;;;;;;;;;7385035;19;20003;-73
2021/12/14 05:32:55;;;;;;;21.45;2.50;;;;;;;;;;7382459;19;20034;-72
2021/12/14 05:35:20;;;;;;;17.15;1.70;;;;;;;;;;7383399;19;20450;-71
2021/12/14 05:37:50;;;;;;;29.15;3.92;;;;;;;;;;7383385;19;20003;-74
2021/12/14 05:43:15;;;;;;;12.98;1.75;;;;;;;;;;7382877;19;20018;-71
2021/12/14 05:45:43;;;;;;;18.25;2.80;;;;;;;;;;7382684;19;20007;-75
2021/12/14 05:48:15;;;;;;;21.13;1.92;;;;;;;;;;7384452;19;20014;-71
2021/12/14 05:50:49;;;;;;;20.80;2.95;;;;;;;;;;7385758;19;20459;-75
2021/12/14 05:53:30;;;;;;;17.37;2.10;;;;;;;;;;7382870;19;20014;-73
2021/12/14 05:55:57;;;;;;;21.00;2.10;;;;;;;;;;7384175;19;20002;-73
2021/12/14 05:58:24;;;;;;;29.35;2.13;;;;;;;;;;7348523;19;20151;-73
2021/12/14 06:00:54;;;;;;;20.00;2.97;;;;;;;;;;7382975;19;20019;-73
2021/12/14 06:03:23;;;;;;;37.50;4.55;;;;;;;;;;7383091;19;20021;-73
2021/12/14 06:05:49;;;;;;;9.95;1.98;;;;;;;;;;7379177;19;20031;-74
2021/12/14 06:08:34;;;;;;;9.18;2.03;;;;;;;;;;7379405;19;20006;-72
2021/12/14 06:11:01;;;;;;;16.95;3.35;;;;;;;;;;7379660;19;20006;-72
2021/12/14 06:13:56;;;;;;;9.93;1.77;;;;;;;;;;7385065;19;20066;-75
2021/12/14 06:16:23;;;;;;;22.17;2.72;;;;;;;;;;7380148;19;20006;-73
2021/12/14 06:18:48;;;;;;;14.27;1.95;;;;;;;;;;7380760;19;20020;-74
2021/12/14 06:21:14;;;;;;;12.40;3.13;;;;;;;;;;7381868;19;20362;-75
2021/12/14 06:23:39;;;;;;;26.88;5.22;;;;;;;;;;7382320;19;20468;-71
2021/12/14 06:26:05;;;;;;;17.00;4.43;;;;;;;;;;7382365;19;20484;-73
2021/12/14 06:28:31;;;;;;;28.73;4.18;;;;;;;;;;7383801;19;20105;-73
2021/12/14 06:30:58;;;;;;;9.48;2.50;;;;;;;;;;7382785;19;19999;-74
2021/12/14 06:33:31;;;;;;;24.42;3.42;;;;;;;;;;7382340;19;20006;-72
2021/12/14 06:35:59;;;;;;;7.63;3.28;;;;;;;;;;7383649;19;20006;-72
2021/12/14 06:38:34;;;;;;;23.75;3.67;;;;;;;;;;7380151;19;20031;-74
2021/12/14 06:41:15;;;;;;;14.63;3.72;;;;;;;;;;7380597;19;20036;-71
2021/12/14 06:43:54;;;;;;;10.52;3.63;;;;;;;;;;7382147;19;20293;-74
2021/12/14 06:46:30;;;;;;;8.13;3.60;;;;;;;;;;7382840;19;20457;-74
2021/12/14 06:49:00;;;;;;;18.08;4.55;;;;;;;;;;7383745;19;20036;-74
2021/12/14 06:51:32;;;;;;;25.35;4.70;;;;;;;;;;7384208;19;20034;-75
2021/12/14 06:54:07;;;;;;;56.75;9.00;;;;;;;;;;7383293;19;20013;-74
2021/12/14 06:56:33;;;;;;;;;;;;;;;;;;7388187;19;20018;-73
2021/12/14 06:59:02;;;;;;;12.07;4.63;;;;;;;;;;7381765;19;19918;-71
2021/12/14 07:01:32;;;;;;;9.05;3.22;;;;;;;;;;7375205;19;20481;-73
2021/12/14 07:04:00;;;;;;;22.02;3.72;;;;;;;;;;7375314;19;20006;-70
2021/12/14 07:06:37;;;;;;;17.98;3.90;;;;;;;;;;7381942;19;20034;-71
2021/12/14 07:09:10;;;;;;;6.03;2.25;;;;;;;;;;7383175;19;20010;-73
2021/12/14 07:11:38;;;;;;;8.13;3.17;;;;;;;;;;7384339;19;20015;-72
2021/12/14 07:14:14;;;;;;;6.75;3.13;;;;;;;;;;7381596;19;20070;-71
2021/12/14 07:16:46;;;;;;;36.90;4.32;;;;;;;;;;7388657;19;20035;-72
2021/12/14 07:19:11;;;;;;;7.70;3.20;;;;;;;;;;7389640;19;20065;-72
2021/12/14 07:21:39;;;;;;;3.45;2.60;;;;;;;;;;7388135;19;20501;-72
2021/12/14 07:24:23;;;;;;;8.23;3.08;;;;;;;;;;7389464;19;19999;-73
2021/12/14 07:27:20;;;;;;;20.33;3.47;;;;;;;;;;7388064;19;20003;-70
2021/12/14 07:29:46;;;;;;;23.30;3.53;;;;;;;;;;7387475;19;20106;-72
2021/12/14 07:32:12;;;;;;;9.15;3.65;;;;;;;;;;7391606;19;20074;-69
2021/12/14 07:34:38;;;;;;;14.52;3.17;;;;;;;;;;7359359;19;20103;-71
2021/12/14 07:37:03;;;;;;;14.60;4.20;;;;;;;;;;7390835;19;20026;-72
2021/12/14 07:39:29;;;;;;;10.60;3.45;;;;;;;;;;7389439;19;20011;-69
2021/12/14 07:42:01;;;;;;;17.08;2.90;;;;;;;;;;7390479;19;20014;-73
2021/12/14 07:44:33;;;;;;;10.77;2.58;;;;;;;;;;7390488;19;20010;-69
2021/12/14 07:47:14;;;;;;;18.50;3.55;;;;;;;;;;7389585;19;20010;-71
2021/12/14 07:49:56;;;;;;;11.25;4.32;;;;;;;;;;7391343;19;20024;-71
2021/12/14 07:52:25;;;;;;;12.80;6.13;;;;;;;;;;7384200;19;20458;-74
2021/12/14 07:54:55;;;;;;;8.18;4.25;;;;;;;;;;7384152;19;20027;-71
2021/12/14 07:57:23;;;;;;;4.78;3.00;;;;;;;;;;7392526;19;20006;-71
2021/12/14 07:59:51;;;;;;;3.30;2.58;;;;;;;;;;7388145;19;20011;-70
2021/12/14 08:02:22;;;;;;;5.03;2.90;;;;;;;;;;7388901;19;20042;-71
2021/12/14 08:04:53;;;;;;;3.60;2.80;;;;;;;;;;7388379;19;20078;-71
2021/12/14 08:07:45;;;;;;;4.18;2.97;;;;;;;;;;7393089;19;20022;-71
2021/12/14 08:10:26;;;;;;;4.50;3.08;;;;;;;;;;7387980;19;20019;-73
2021/12/14 08:12:53;;;;;;;4.07;2.63;;;;;;;;;;7386398;19;20118;-72
2021/12/14 08:15:27;;;;;;;3.67;2.40;;;;;;;;;;7388913;19;20013;-72
2021/12/14 08:18:04;;;;;;;3.97;2.95;;;;;;;;;;7390996;19;20350;-72
2021/12/14 08:20:31;;;;;;;3.50;2.55;;;;;;;;;;7384571;19;19998;-71
2021/12/14 08:23:10;;;;;;;4.18;2.60;;;;;;;;;;7383558;19;20045;-71
2021/12/14 08:25:36;;;;;;;2.55;2.13;;;;;;;;;;7385782;19;20381;-72
2021/12/14 08:28:06;;;;;;;3.65;2.60;;;;;;;;;;7381692;19;20570;-73
2021/12/14 08:30:35;;;;;;;3.33;2.53;;;;;;;;;;7384147;19;20050;-68
2021/12/14 08:33:02;;;;;;;3.85;2.60;;;;;;;;;;7385431;19;20014;-71
2021/12/14 08:35:28;;;;;;;3.83;2.22;;;;;;;;;;7387948;19;20469;-71
2021/12/14 08:37:59;;;;;;;4.90;2.58;;;;;;;;;;7387931;19;20014;-72
2021/12/14 08:40:37;;;;;;;3.05;2.42;;;;;;;;;;7389901;19;20030;-72
2021/12/14 08:43:20;;;;;;;3.00;2.28;;;;;;;;;;7387632;19;20496;-73
2021/12/14 08:45:49;;;;;;;4.20;2.88;;;;;;;;;;7385939;19;20010;-74
2021/12/14 08:48:19;;;;;;;4.00;2.63;;;;;;;;;;7388501;19;20026;-74
2021/12/14 08:50:52;;;;;;;3.53;2.70;;;;;;;;;;7387774;19;19995;-73
2021/12/14 08:53:18;;;;;;;3.08;2.17;;;;;;;;;;7387378;19;20125;-73
2021/12/14 08:55:47;;;;;;;2.80;2.20;;;;;;;;;;7390689;19;20500;-72
2021/12/14 08:58:14;;;;;;;3.33;2.45;;;;;;;;;;7387426;19;20380;-73
2021/12/14 09:00:45;;;;;;;4.78;2.30;;;;;;;;;;7387094;19;20006;-74
2021/12/14 09:03:16;;;;;;;3.95;2.85;;;;;;;;;;7390697;19;20011;-75
2021/12/14 09:05:47;;;;;;;3.97;2.33;;;;;;;;;;7386428;19;20012;-72
2021/12/14 09:08:15;;;;;;;3.30;2.42;;;;;;;;;;7380644;19;21605;-74
2021/12/14 09:10:43;;;;;;;3.67;2.63;;;;;;;;;;7384674;19;20009;-73
2021/12/14 09:13:13;;;;;;;4.05;2.45;;;;;;;;;;7379679;19;20010;-75
2021/12/14 09:15:46;;;;;;;2.95;2.20;;;;;;;;;;7380185;19;20022;-74
2021/12/14 09:18:15;;;;;;;3.17;2.55;;;;;;;;;;7377970;19;20010;-71
2021/12/14 09:20:50;;;;;;;3.10;2.42;;;;;;;;;;7381148;19;20007;-73
2021/12/14 09:23:20;;;;;;;3.50;2.80;;;;;;;;;;7380321;19;20589;-74
2021/12/14 09:25:46;;;;;;;3.97;2.78;;;;;;;;;;7379854;19;20035;-71
2021/12/14 09:28:13;;;;;;;4.88;2.53;;;;;;;;;;7378522;19;20014;-72
2021/12/14 09:30:46;;;;;;;3.67;2.80;;;;;;;;;;7381071;19;20373;-72
2021/12/14 09:33:13;;;;;;;4.38;2.88;;;;;;;;;;7376996;19;20023;-73
2021/12/14 09:35:40;;;;;;;4.05;2.78;;;;;;;;;;7376827;19;20007;-73
2021/12/14 09:38:10;;;;;;;3.67;2.78;;;;;;;;;;7380612;19;20318;-73
2021/12/14 09:40:41;;;;;;;4.68;3.30;;;;;;;;;;7382920;19;20035;-73
2021/12/14 09:43:06;;;;;;;6.80;3.45;;;;;;;;;;7379940;19;20110;-73
2021/12/14 09:45:42;;;;;;;5.45;3.30;;;;;;;;;;7376961;19;20369;-72
2021/12/14 09:48:10;;;;;;;5.95;3.33;;;;;;;;;;7375481;19;20094;-71
2021/12/14 09:50:37;;;;;;;5.22;3.35;;;;;;;;;;7377422;19;20006;-73
2021/12/14 09:53:07;;;;;;;4.38;3.38;;;;;;;;;;7377651;19;20362;-74
2021/12/14 09:55:36;;;;;;;4.65;3.67;;;;;;;;;;7377032;19;20003;-73
2021/12/14 09:58:07;;;;;;;5.82;3.80;;;;;;;;;;7382819;19;20006;-74
2021/12/14 10:00:41;;;;;;;5.72;4.00;;;;;;;;;;7371777;19;20010;-71
2021/12/14 10:03:08;;;;;;;5.55;3.60;;;;;;;;;;7378307;19;20504;-71
2021/12/14 10:05:41;;;;;;;4.82;3.63;;;;;;;;;;7372232;19;20007;-71
2021/12/14 10:08:16;;;;;;;5.45;3.83;;;;;;;;;;7379257;19;20065;-72
2021/12/14 10:11:01;;;;;;;5.55;4.00;;;;;;;;;;7374115;19;20010;-71
2021/12/14 10:13:28;;;;;;;6.47;3.80;;;;;;;;;;7380281;19;20006;-69
2021/12/14 10:15:55;;;;;;;5.72;4.10;;;;;;;;;;7372613;19;20010;-69
2021/12/14 10:18:26;;;;;;;6.80;4.40;;;;;;;;;;7377482;19;20003;-72
2021/12/14 10:21:01;;;;;;;8.38;4.68;;;;;;;;;;7381675;19;20011;-70
2021/12/14 10:23:28;;;;;;;6.67;4.57;;;;;;;;;;7378873;19;20074;-70
2021/12/14 10:25:54;;;;;;;6.97;4.70;;;;;;;;;;7378011;19;20247;-72
2021/12/14 10:28:23;;;;;;;6.93;4.20;;;;;;;;;;7375832;19;20014;-69
2021/12/14 10:30:55;;;;;;;7.93;4.93;;;;;;;;;;7382377;19;20110;-69
2021/12/14 10:33:22;;;;;;;6.35;4.43;;;;;;;;;;7378543;19;20015;-72
2021/12/14 10:35:54;;;;;;;8.00;5.03;;;;;;;;;;7380746;19;19994;-70
2021/12/14 10:38:31;;;;;;;5.95;4.25;;;;;;;;;;7375427;19;20006;-70
2021/12/14 10:44:04;;;;;;;8.40;4.53;;;;;;;;;;7379405;19;20023;-72
2021/12/14 10:46:34;;;;;;;8.30;4.93;;;;;;;;;;7372465;19;20009;-72
2021/12/14 10:49:00;;;;;;;8.15;5.07;;;;;;;;;;7384427;19;20014;-71
2021/12/14 10:51:31;;;;;;;6.90;4.20;;;;;;;;;;7381695;19;20013;-72
2021/12/14 10:54:00;;;;;;;7.55;4.60;;;;;;;;;;7374343;19;20010;-72
2021/12/14 10:56:33;;;;;;;8.20;4.85;;;;;;;;;;7384454;19;19998;-69
2021/12/14 10:59:01;;;;;;;7.93;4.70;;;;;;;;;;7385133;19;20103;-68
2021/12/14 11:01:31;;;;;;;10.48;5.35;;;;;;;;;;7380650;19;20003;-70
2021/12/14 11:04:02;;;;;;;9.48;6.20;;;;;;;;;;7375554;19;20476;-70
2021/12/14 11:06:31;;;;;;;8.43;4.72;;;;;;;;;;7379674;19;20331;-71
2021/12/14 11:11:37;;;;;;;8.38;5.50;;;;;;;;;;7380380;19;20028;-72
2021/12/14 11:14:12;;;;;;;9.60;5.45;;;;;;;;;;7383321;19;20010;-71
2021/12/14 11:19:35;;;;;;;10.88;5.97;;;;;;;;;;7375227;19;20017;-72
2021/12/14 11:22:16;;;;;;;9.52;5.85;;;;;;;;;;7380603;19;20017;-70
2021/12/14 11:24:48;;;;;;;10.20;5.53;;;;;;;;;;7381021;19;20356;-72
2021/12/14 11:27:20;;;;;;;8.25;5.32;;;;;;;;;;7383555;19;20073;-72
2021/12/14 11:29:50;;;;;;;7.70;5.18;;;;;;;;;;7379019;19;20094;-71
2021/12/14 11:32:19;;;;;;;7.50;4.78;;;;;;;;;;7374080;19;20014;-71
2021/12/14 11:34:46;;;;;;;8.80;4.75;;;;;;;;;;7346636;19;20010;-70
2021/12/14 11:37:15;;;;;;;9.35;5.57;;;;;;;;;;7377848;19;20013;-72
2021/12/14 11:39:48;;;;;;;9.90;6.03;;;;;;;;;;7381425;19;20013;-71
2021/12/14 11:42:20;;;;;;;10.32;6.03;;;;;;;;;;7375818;19;20019;-72
2021/12/14 11:44:53;;;;;;;9.43;5.75;;;;;;;;;;7383035;19;20007;-70
2021/12/14 11:50:11;;;;;;;17.02;7.93;;;;;;;;;;7380937;19;20122;-73
2021/12/14 11:52:39;;;;;;;13.20;7.65;;;;;;;;;;7381280;19;20448;-74
2021/12/14 11:55:28;;;;;;;11.50;6.65;;;;;;;;;;7382096;19;20031;-72
2021/12/14 11:58:33;;;;;;;11.13;5.60;;;;;;;;;;7380520;19;20002;-71
2021/12/14 12:01:33;;;;;;;11.80;6.35;;;;;;;;;;7381407;19;20018;-73
2021/12/14 12:04:05;;;;;;;13.05;6.72;;;;;;;;;;7383929;19;20108;-74
2021/12/14 12:09:29;;;;;;;9.95;6.47;;;;;;;;;;7384989;19;20441;-71
2021/12/14 12:12:03;;;;;;;9.25;5.60;;;;;;;;;;7389030;19;20018;-71
2021/12/14 12:14:50;;;;;;;10.25;6.38;;;;;;;;;;7382033;19;20757;-71
2021/12/14 12:17:21;;;;;;;10.70;6.40;;;;;;;;;;7382729;19;20006;-71
2021/12/14 12:20:21;;;;;;;9.43;5.97;;;;;;;;;;7382328;19;20467;-72
2021/12/14 12:22:57;;;;;;;9.68;6.03;;;;;;;;;;7380485;19;20369;-70
2021/12/14 12:25:32;;;;;;;8.75;5.60;;;;;;;;;;7379622;19;20015;-69
2021/12/14 12:27:59;;;;;;;;;;;;;;;;;;7376132;19;20018;-71
2021/12/14 12:30:31;;;;;;;10.45;6.20;;;;;;;;;;7373398;19;20896;-70
2021/12/14 12:33:01;;;;;;;11.32;6.95;;;;;;;;;;7382259;19;20010;-69
2021/12/14 12:35:43;;;;;;;10.48;5.68;;;;;;;;;;7377199;19;20045;-70
2021/12/14 12:38:27;;;;;;;12.35;7.00;;;;;;;;;;7375090;19;20010;-71
2021/12/14 12:40:59;;;;;;;12.25;6.30;;;;;;;;;;7377596;19;20034;-72
2021/12/14 12:43:32;;;;;;;18.88;6.65;;;;;;;;;;7372957;19;20066;-72
2021/12/14 12:46:21;;;;;;;12.50;5.45;;;;;;;;;;7375823;19;20010;-72
2021/12/14 12:49:06;;;;;;;11.15;6.00;;;;;;;;;;7380939;19;20031;-72
2021/12/14 12:51:46;;;;;;;9.60;6.00;;;;;;;;;;7381493;19;20017;-71
2021/12/14 12:54:43;;;;;;;10.98;6.10;;;;;;;;;;7383518;19;20050;-70
2021/12/14 12:57:08;;;;;;;10.38;5.60;;;;;;;;;;7374903;19;20027;-70
2021/12/14 12:59:48;;;;;;;10.23;6.28;;;;;;;;;;7381413;19;20006;-71
2021/12/14 13:02:29;;;;;;;10.43;6.45;;;;;;;;;;7377953;19;20026;-71
2021/12/14 13:05:00;;;;;;;12.02;8.13;;;;;;;;;;7377583;19;20011;-73
2021/12/14 13:07:33;;;;;;;11.00;6.45;;;;;;;;;;7381528;19;20949;-71
2021/12/14 13:10:08;;;;;;;12.98;8.40;;;;;;;;;;7379527;19;20028;-70
2021/12/14 13:12:56;;;;;;;10.43;7.32;;;;;;;;;;7379463;19;20441;-71
2021/12/14 13:15:40;;;;;;;13.18;7.80;;;;;;;;;;7381443;19;20494;-71
2021/12/14 13:18:16;;;;;;;11.33;6.73;;;;;;;;;;7381380;19;20010;-71
2021/12/14 13:20:43;;;;;;;9.40;6.65;;;;;;;;;;7386596;19;20014;-72
2021/12/14 13:23:08;;;;;;;13.68;7.03;;;;;;;;;;7373854;19;20925;-72
2021/12/14 13:25:39;;;;;;;13.10;6.90;;;;;;;;;;7375952;19;20419;-71
2021/12/14 13:28:05;;;;;;;9.68;6.43;;;;;;;;;;7378115;19;20021;-71
2021/12/14 13:30:31;;;;;;;20.83;9.13;;;;;;;;;;7380496;19;20114;-71
2021/12/14 13:32:57;;;;;;;12.18;7.70;;;;;;;;;;7372849;19;20039;-74
2021/12/14 13:35:28;;;;;;;11.60;6.32;;;;;;;;;;7372365;19;20414;-74
2021/12/14 13:38:02;;;;;;;10.82;6.78;;;;;;;;;;7380522;19;20020;-72
2021/12/14 13:40:41;;;;;;;8.00;5.85;;;;;;;;;;7383571;19;20079;-71
2021/12/14 13:43:07;;;;;;;9.30;5.80;;;;;;;;;;7382764;19;20500;-71
2021/12/14 13:45:39;;;;;;;10.93;6.28;;;;;;;;;;7380108;19;20484;-74
2021/12/14 13:48:07;;;;;;;9.77;5.90;;;;;;;;;;7378780;19;20017;-70
2021/12/14 13:50:41;;;;;;;12.50;6.13;;;;;;;;;;7377868;19;20123;-71
2021/12/14 13:53:08;;;;;;;8.80;6.18;;;;;;;;;;7384305;19;20095;-71
2021/12/14 13:55:46;;;;;;;9.27;5.97;;;;;;;;;;7384962;19;20034;-71
2021/12/14 13:58:17;;;;;;;10.20;6.18;;;;;;;;;;7386666;19;20118;-71
2021/12/14 14:00:51;;;;;;;8.80;5.63;;;;;;;;;;7379762;19;20115;-71
2021/12/14 14:03:18;;;;;;;11.13;6.50;;;;;;;;;;7383056;19;20023;-71
2021/12/14 14:05:44;;;;;;;8.07;6.00;;;;;;;;;;7378409;19;21010;-71
2021/12/14 14:08:20;;;;;;;9.32;5.47;;;;;;;;;;7380222;19;20039;-70
2021/12/14 14:10:48;;;;;;;7.93;4.95;;;;;;;;;;7374420;19;20014;-71
2021/12/14 14:13:31;;;;;;;8.75;5.85;;;;;;;;;;7377708;19;20018;-73
2021/12/14 14:15:58;;;;;;;12.10;6.05;;;;;;;;;;7372537;19;20326;-71
2021/12/14 14:18:37;;;;;;;8.95;5.65;;;;;;;;;;7374988;19;20102;-70
2021/12/14 14:21:05;;;;;;;9.25;6.22;;;;;;;;;;7376286;19;20047;-68
2021/12/14 14:23:50;;;;;;;18.23;6.13;;;;;;;;;;7378844;19;20006;-70
2021/12/14 14:26:20;;;;;;;8.38;5.53;;;;;;;;;;7368351;19;20014;-70
2021/12/14 14:28:45;;;;;;;9.43;6.25;;;;;;;;;;7369709;19;20337;-71
2021/12/14 14:31:42;;;;;;;9.85;5.85;;;;;;;;;;7365290;19;20009;-70
2021/12/14 14:34:34;;;;;;;17.65;9.45;;;;;;;;;;7379127;19;20339;-71
2021/12/14 14:37:05;;;;;;;11.32;6.45;;;;;;;;;;7377647;19;20477;-71
2021/12/14 14:39:47;;;;;;;8.70;5.78;;;;;;;;;;7382357;19;20010;-71
2021/12/14 14:42:16;;;;;;;11.82;5.38;;;;;;;;;;7377674;19;20007;-72
2021/12/14 14:44:44;;;;;;;10.20;6.22;;;;;;;;;;7384468;19;20010;-72
2021/12/14 14:47:35;;;;;;;12.60;6.50;;;;;;;;;;7380845;19;20813;-69
2021/12/14 14:50:06;;;;;;;10.95;5.80;;;;;;;;;;7377798;19;20014;-70
2021/12/14 14:52:39;;;;;;;10.88;6.13;;;;;;;;;;7382486;19;20010;-71
2021/12/14 14:55:19;;;;;;;9.93;6.35;;;;;;;;;;7383797;19;20010;-70
2021/12/14 14:57:52;;;;;;;11.02;6.90;;;;;;;;;;7382319;19;20007;-72
2021/12/14 15:00:25;;;;;;;11.00;7.28;;;;;;;;;;7382613;19;20409;-70
2021/12/14 15:02:56;;;;;;;12.43;6.22;;;;;;;;;;7380620;19;20027;-71
2021/12/14 15:05:30;;;;;;;12.68;6.88;;;;;;;;;;7378593;19;20055;-71
2021/12/14 15:08:10;;;;;;;15.75;6.60;;;;;;;;;;7379881;19;20006;-72
2021/12/14 15:10:54;;;;;;;11.10;7.10;;;;;;;;;;7380309;19;20027;-71
2021/12/14 15:13:41;;;;;;;9.73;6.28;;;;;;;;;;7380781;19;20007;-71
2021/12/14 15:16:36;;;;;;;10.07;6.35;;;;;;;;;;7384895;19;20010;-71
2021/12/14 15:19:09;;;;;;;9.35;6.18;;;;;;;;;;7381349;19;20006;-70
2021/12/14 15:21:55;;;;;;;7.65;4.95;;;;;;;;;;7377586;19;20039;-69
2021/12/14 15:24:47;;;;;;;11.40;6.63;;;;;;;;;;7376803;19;20464;-69
2021/12/14 15:27:12;;;;;;;11.32;6.80;;;;;;;;;;7374979;19;20010;-69
2021/12/14 15:30:11;;;;;;;14.05;9.35;;;;;;;;;;7372697;19;20013;-70
2021/12/14 15:33:25;;;;;;;10.43;6.43;;;;;;;;;;7371723;19;20337;-69
2021/12/14 15:36:01;;;;;;;9.05;6.05;;;;;;;;;;7370532;19;20014;-71
2021/12/14 15:38:32;;;;;;;9.90;6.32;;;;;;;;;;7377114;19;20025;-71
2021/12/14 15:41:13;;;;;;;8.90;5.72;;;;;;;;;;7385240;19;20503;-71
2021/12/14 15:43:46;;;;;;;9.60;6.00;;;;;;;;;;7385855;19;20067;-71
2021/12/14 15:46:21;;;;;;;10.43;6.32;;;;;;;;;;7382494;19;20419;-73
2021/12/14 15:48:59;;;;;;;11.90;6.30;;;;;;;;;;7387965;19;20006;-70
2021/12/14 15:51:32;;;;;;;10.85;5.88;;;;;;;;;;7385411;19;20081;-71
2021/12/14 15:53:57;;;;;;;10.88;6.82;;;;;;;;;;7387300;19;20021;-71